Time,TemperatureF,DewpointF,PressureIn,WindDirection,WindDirectionDegrees,WindSpeedMPH,WindSpeedGustMPH,Humidity,HourlyPrecipIn,Conditions,Clouds,dailyrainin,SoftwareType,DateUTC
2013-09-06 00:00:00,55.3,48.6,30.20,NE,49,0.0,6.0,78,0.00,,CLR,0.00,VWS V14.01,2013-09-06 04:00:00,
2013-09-06 00:01:00,55.3,48.6,30.20,NE,49,0.0,6.0,78,0.00,,CLR,0.00,VWS V14.01,2013-09-06 04:01:00,
2013-09-06 00:02:00,55.3,48.9,30.20,NE,49,0.0,6.0,79,0.00,,CLR,0.00,VWS V14.01,2013-09-06 04:02:00,
2013-09-06 00:05:00,55.6,49.2,30.20,NE,49,1.0,6.0,79,0.00,,CLR,0.00,VWS V14.01,2013-09-06 04:05:00,
2013-09-06 00:07:00,56.0,49.2,30.20,NE,49,1.0,6.0,78,0.00,,CLR,0.00,VWS V14.01,2013-09-06 04:07:00,
2013-09-06 00:10:00,56.2,49.4,30.20,NE,49,0.0,6.0,78,0.00,,CLR,0.00,VWS V14.01,2013-09-06 04:10:00,
2013-09-06 00:12:00,56.4,49.6,30.20,NE,47,1.0,6.0,78,0.00,,CLR,0.00,VWS V14.01,2013-09-06 04:12:00,
2013-09-06 00:15:00,56.6,49.5,30.20,NE,47,0.0,6.0,77,0.00,,CLR,0.00,VWS V14.01,2013-09-06 04:15:00,
2013-09-06 00:17:00,56.7,49.6,30.20,ENE,67,1.0,6.0,77,0.00,,CLR,0.00,VWS V14.01,2013-09-06 04:17:00,
2013-09-06 00:20:00,56.8,49.7,30.20,ENE,64,1.0,6.0,77,0.00,,CLR,0.00,VWS V14.01,2013-09-06 04:20:00,
2013-09-06 00:22:00,56.8,49.3,30.20,ENE,63,0.0,6.0,76,0.00,,CLR,0.00,VWS V14.01,2013-09-06 04:22:00,
2013-09-06 00:25:00,56.8,49.3,30.21,ENE,64,0.0,6.0,76,0.00,,CLR,0.00,VWS V14.01,2013-09-06 04:25:00,
2013-09-06 00:27:00,56.8,49.3,30.21,ENE,64,0.0,6.0,76,0.00,,CLR,0.00,VWS V14.01,2013-09-06 04:27:00,
2013-09-06 00:30:00,56.8,49.7,30.21,ENE,64,0.0,6.0,77,0.00,,CLR,0.00,VWS V14.01,2013-09-06 04:30:00,
2013-09-06 00:32:00,56.9,49.4,30.21,ENE,63,1.0,6.0,76,0.00,,CLR,0.00,VWS V14.01,2013-09-06 04:32:00,
2013-09-06 00:35:00,56.9,49.4,30.21,ENE,63,0.0,6.0,76,0.00,,CLR,0.00,VWS V14.01,2013-09-06 04:35:00,
2013-09-06 00:37:00,56.9,49.4,30.21,ENE,63,0.0,6.0,76,0.00,,CLR,0.00,VWS V14.01,2013-09-06 04:37:00,
2013-09-06 00:40:00,56.9,49.8,30.21,ENE,63,0.0,6.0,77,0.00,,CLR,0.00,VWS V14.01,2013-09-06 04:40:00,
2013-09-06 00:42:00,56.9,49.8,30.21,ENE,63,0.0,6.0,77,0.00,,CLR,0.00,VWS V14.01,2013-09-06 04:42:00,
2013-09-06 00:45:00,56.8,49.7,30.21,ENE,63,0.0,6.0,77,0.00,,CLR,0.00,VWS V14.01,2013-09-06 04:45:00,
2013-09-06 00:47:00,56.8,49.7,30.21,ENE,63,0.0,6.0,77,0.00,,CLR,0.00,VWS V14.01,2013-09-06 04:47:00,
2013-09-06 00:50:00,56.8,49.7,30.21,ENE,63,0.0,6.0,77,0.00,,CLR,0.00,VWS V14.01,2013-09-06 04:50:00,
2013-09-06 00:52:00,56.6,49.5,30.21,ENE,63,0.0,6.0,77,0.00,,CLR,0.00,VWS V14.01,2013-09-06 04:52:00,
2013-09-06 00:55:00,56.6,49.5,30.21,ENE,63,0.0,6.0,77,0.00,,CLR,0.00,VWS V14.01,2013-09-06 04:55:00,
2013-09-06 00:57:00,56.4,49.3,30.22,ENE,63,0.0,6.0,77,0.00,,CLR,0.00,VWS V14.01,2013-09-06 04:57:00,
2013-09-06 01:00:00,56.3,49.2,30.22,ENE,63,0.0,6.0,77,0.00,,CLR,0.00,VWS V14.01,2013-09-06 05:00:00,
2013-09-06 01:02:00,56.1,49.3,30.22,ENE,63,0.0,6.0,78,0.00,,CLR,0.00,VWS V14.01,2013-09-06 05:02:00,
2013-09-06 01:05:00,55.9,49.2,30.22,ENE,63,0.0,6.0,78,0.00,,CLR,0.00,VWS V14.01,2013-09-06 05:05:00,
2013-09-06 01:07:00,55.5,48.8,30.22,ENE,63,0.0,6.0,78,0.00,,CLR,0.00,VWS V14.01,2013-09-06 05:07:00,
2013-09-06 01:10:00,55.3,48.6,30.22,ENE,63,0.0,6.0,78,0.00,,CLR,0.00,VWS V14.01,2013-09-06 05:10:00,
2013-09-06 01:12:00,55.0,48.6,30.22,ENE,63,0.0,6.0,79,0.00,,CLR,0.00,VWS V14.01,2013-09-06 05:12:00,
2013-09-06 01:15:00,54.7,48.3,30.22,ENE,63,0.0,6.0,79,0.00,,CLR,0.00,VWS V14.01,2013-09-06 05:15:00,
2013-09-06 01:17:00,54.5,48.5,30.22,ENE,63,0.0,6.0,80,0.00,,CLR,0.00,VWS V14.01,2013-09-06 05:17:00,
2013-09-06 01:20:00,54.4,48.4,30.22,ENE,63,0.0,6.0,80,0.00,,CLR,0.00,VWS V14.01,2013-09-06 05:20:00,
2013-09-06 01:22:00,54.4,48.7,30.22,ENE,63,0.0,6.0,81,0.00,,CLR,0.00,VWS V14.01,2013-09-06 05:22:00,
2013-09-06 01:25:00,54.5,48.8,30.22,ENE,62,0.0,6.0,81,0.00,,CLR,0.00,VWS V14.01,2013-09-06 05:25:00,
2013-09-06 01:27:00,54.6,48.9,30.22,ENE,63,0.0,6.0,81,0.00,,CLR,0.00,VWS V14.01,2013-09-06 05:27:00,
2013-09-06 01:30:00,54.6,48.9,30.22,ENE,63,0.0,6.0,81,0.00,,CLR,0.00,VWS V14.01,2013-09-06 05:30:00,
2013-09-06 01:32:00,54.5,48.8,30.22,ENE,63,0.0,6.0,81,0.00,,CLR,0.00,VWS V14.01,2013-09-06 05:32:00,
2013-09-06 01:35:00,54.4,48.7,30.22,ENE,62,0.0,6.0,81,0.00,,CLR,0.00,VWS V14.01,2013-09-06 05:35:00,
2013-09-06 01:37:00,54.3,48.6,30.22,ENE,63,0.0,6.0,81,0.00,,CLR,0.00,VWS V14.01,2013-09-06 05:37:00,
2013-09-06 01:40:00,54.2,48.5,30.22,ENE,63,0.0,6.0,81,0.00,,CLR,0.00,VWS V14.01,2013-09-06 05:40:00,
2013-09-06 01:42:00,54.1,48.7,30.22,ENE,63,0.0,6.0,82,0.00,,CLR,0.00,VWS V14.01,2013-09-06 05:42:00,
2013-09-06 01:45:00,54.0,48.6,30.22,ENE,63,0.0,6.0,82,0.00,,CLR,0.00,VWS V14.01,2013-09-06 05:45:00,
2013-09-06 01:47:00,53.8,48.4,30.22,ENE,63,0.0,6.0,82,0.00,,CLR,0.00,VWS V14.01,2013-09-06 05:47:00,
2013-09-06 01:50:00,53.7,48.3,30.22,ENE,63,0.0,6.0,82,0.00,,CLR,0.00,VWS V14.01,2013-09-06 05:50:00,
2013-09-06 01:52:00,53.7,48.7,30.22,ENE,63,0.0,6.0,83,0.00,,CLR,0.00,VWS V14.01,2013-09-06 05:52:00,
2013-09-06 01:55:00,53.6,48.6,30.22,ENE,63,0.0,6.0,83,0.00,,CLR,0.00,VWS V14.01,2013-09-06 05:55:00,
2013-09-06 01:57:00,53.5,48.5,30.22,ENE,63,0.0,6.0,83,0.00,,CLR,0.00,VWS V14.01,2013-09-06 05:57:00,
2013-09-06 02:00:00,53.5,48.8,30.22,ENE,63,0.0,6.0,84,0.00,,CLR,0.00,VWS V14.01,2013-09-06 06:00:00,
2013-09-06 02:02:00,53.5,48.8,30.22,ENE,63,0.0,6.0,84,0.00,,CLR,0.00,VWS V14.01,2013-09-06 06:02:00,
2013-09-06 02:05:00,53.4,48.7,30.22,ENE,63,0.0,6.0,84,0.00,,CLR,0.00,VWS V14.01,2013-09-06 06:05:00,
2013-09-06 02:07:00,53.3,48.6,30.22,ENE,63,0.0,6.0,84,0.00,,CLR,0.00,VWS V14.01,2013-09-06 06:07:00,
2013-09-06 02:10:00,53.0,48.3,30.22,ENE,63,0.0,6.0,84,0.00,,CLR,0.00,VWS V14.01,2013-09-06 06:10:00,
2013-09-06 02:12:00,52.8,48.1,30.22,ENE,63,0.0,6.0,84,0.00,,CLR,0.00,VWS V14.01,2013-09-06 06:12:00,
2013-09-06 02:15:00,52.6,47.9,30.22,ENE,62,0.0,6.0,84,0.00,,CLR,0.00,VWS V14.01,2013-09-06 06:15:00,
2013-09-06 02:18:00,52.4,47.7,30.22,ENE,63,0.0,6.0,84,0.00,,CLR,0.00,VWS V14.01,2013-09-06 06:18:00,
2013-09-06 02:20:00,52.3,47.6,30.22,ENE,63,0.0,6.0,84,0.00,,CLR,0.00,VWS V14.01,2013-09-06 06:20:00,
2013-09-06 02:23:00,52.1,47.4,30.22,ENE,64,0.0,6.0,84,0.00,,CLR,0.00,VWS V14.01,2013-09-06 06:23:00,
2013-09-06 02:25:00,52.0,47.6,30.22,ENE,63,0.0,6.0,85,0.00,,CLR,0.00,VWS V14.01,2013-09-06 06:25:00,
2013-09-06 02:28:00,51.8,47.4,30.22,ENE,63,0.0,6.0,85,0.00,,CLR,0.00,VWS V14.01,2013-09-06 06:28:00,
2013-09-06 02:30:00,51.9,47.5,30.22,ENE,63,0.0,6.0,85,0.00,,CLR,0.00,VWS V14.01,2013-09-06 06:30:00,
2013-09-06 02:33:00,51.9,47.8,30.22,ENE,63,0.0,6.0,86,0.00,,CLR,0.00,VWS V14.01,2013-09-06 06:33:00,
2013-09-06 02:35:00,51.9,47.8,30.22,ENE,63,0.0,6.0,86,0.00,,CLR,0.00,VWS V14.01,2013-09-06 06:35:00,
2013-09-06 02:38:00,51.8,47.8,30.22,ENE,63,0.0,6.0,86,0.00,,CLR,0.00,VWS V14.01,2013-09-06 06:38:00,
2013-09-06 02:40:00,51.7,47.7,30.22,ENE,63,0.0,6.0,86,0.00,,CLR,0.00,VWS V14.01,2013-09-06 06:40:00,
2013-09-06 02:43:00,51.5,47.5,30.22,ENE,63,0.0,6.0,86,0.00,,CLR,0.00,VWS V14.01,2013-09-06 06:43:00,
2013-09-06 02:45:00,51.4,47.4,30.22,ENE,63,0.0,6.0,86,0.00,,CLR,0.00,VWS V14.01,2013-09-06 06:45:00,
2013-09-06 02:48:00,51.3,47.3,30.22,ENE,63,0.0,6.0,86,0.00,,CLR,0.00,VWS V14.01,2013-09-06 06:48:00,
2013-09-06 02:50:00,51.3,47.3,30.22,ENE,63,0.0,6.0,86,0.00,,CLR,0.00,VWS V14.01,2013-09-06 06:50:00,
2013-09-06 02:53:00,51.2,47.2,30.22,ENE,63,0.0,6.0,86,0.00,,CLR,0.00,VWS V14.01,2013-09-06 06:53:00,
2013-09-06 02:55:00,51.1,47.1,30.22,ENE,63,0.0,6.0,86,0.00,,CLR,0.00,VWS V14.01,2013-09-06 06:55:00,
2013-09-06 02:58:00,50.9,46.9,30.22,ENE,63,0.0,6.0,86,0.00,,CLR,0.00,VWS V14.01,2013-09-06 06:58:00,
2013-09-06 03:00:00,50.8,46.8,30.23,ENE,63,0.0,6.0,86,0.00,,CLR,0.00,VWS V14.01,2013-09-06 07:00:00,
2013-09-06 03:03:00,50.6,46.6,30.22,ENE,63,0.0,6.0,86,0.00,,CLR,0.00,VWS V14.01,2013-09-06 07:03:00,
2013-09-06 03:05:00,50.5,46.5,30.22,ENE,63,0.0,6.0,86,0.00,,CLR,0.00,VWS V14.01,2013-09-06 07:05:00,
2013-09-06 03:08:00,50.6,46.9,30.22,ENE,63,0.0,6.0,87,0.00,,CLR,0.00,VWS V14.01,2013-09-06 07:08:00,
2013-09-06 03:10:00,50.8,47.1,30.23,ENE,63,0.0,6.0,87,0.00,,CLR,0.00,VWS V14.01,2013-09-06 07:10:00,
2013-09-06 03:13:00,50.8,47.4,30.23,ENE,63,0.0,6.0,88,0.00,,CLR,0.00,VWS V14.01,2013-09-06 07:13:00,
2013-09-06 03:15:00,50.8,47.4,30.23,ENE,63,0.0,6.0,88,0.00,,CLR,0.00,VWS V14.01,2013-09-06 07:15:00,
2013-09-06 03:18:00,50.7,47.0,30.23,ENE,62,0.0,6.0,87,0.00,,CLR,0.00,VWS V14.01,2013-09-06 07:18:00,
2013-09-06 03:20:00,50.7,47.0,30.23,ENE,63,0.0,6.0,87,0.00,,CLR,0.00,VWS V14.01,2013-09-06 07:20:00,
2013-09-06 03:23:00,50.6,47.2,30.23,ENE,63,0.0,6.0,88,0.00,,CLR,0.00,VWS V14.01,2013-09-06 07:23:00,
2013-09-06 03:25:00,50.6,47.2,30.23,ENE,63,0.0,6.0,88,0.00,,CLR,0.00,VWS V14.01,2013-09-06 07:25:00,
2013-09-06 03:28:00,50.6,47.2,30.23,ENE,63,0.0,6.0,88,0.00,,CLR,0.00,VWS V14.01,2013-09-06 07:28:00,
2013-09-06 03:30:00,50.5,47.1,30.23,ENE,63,0.0,6.0,88,0.00,,CLR,0.00,VWS V14.01,2013-09-06 07:30:00,
2013-09-06 03:33:00,50.3,46.9,30.23,ENE,63,0.0,6.0,88,0.00,,CLR,0.00,VWS V14.01,2013-09-06 07:33:00,
2013-09-06 03:35:00,50.2,46.8,30.23,ENE,64,0.0,6.0,88,0.00,,CLR,0.00,VWS V14.01,2013-09-06 07:35:00,
2013-09-06 03:38:00,50.0,46.6,30.23,ENE,63,0.0,6.0,88,0.00,,CLR,0.00,VWS V14.01,2013-09-06 07:38:00,
2013-09-06 03:40:00,49.8,46.4,30.23,ENE,63,0.0,6.0,88,0.00,,CLR,0.00,VWS V14.01,2013-09-06 07:40:00,
2013-09-06 03:43:00,49.7,46.3,30.23,ENE,63,0.0,6.0,88,0.00,,CLR,0.00,VWS V14.01,2013-09-06 07:43:00,
2013-09-06 03:45:00,49.7,46.3,30.23,ENE,63,0.0,6.0,88,0.00,,CLR,0.00,VWS V14.01,2013-09-06 07:45:00,
2013-09-06 03:48:00,49.7,46.3,30.23,ENE,63,0.0,6.0,88,0.00,,CLR,0.00,VWS V14.01,2013-09-06 07:48:00,
2013-09-06 03:50:00,49.7,46.3,30.23,ENE,63,0.0,6.0,88,0.00,,CLR,0.00,VWS V14.01,2013-09-06 07:50:00,
2013-09-06 03:53:00,49.6,46.2,30.23,ENE,63,0.0,6.0,88,0.00,,CLR,0.00,VWS V14.01,2013-09-06 07:53:00,
2013-09-06 03:55:00,49.6,46.2,30.23,ENE,63,0.0,6.0,88,0.00,,CLR,0.00,VWS V14.01,2013-09-06 07:55:00,
2013-09-06 03:58:00,49.6,46.2,30.23,ENE,63,0.0,6.0,88,0.00,,CLR,0.00,VWS V14.01,2013-09-06 07:58:00,
2013-09-06 04:00:00,49.6,46.2,30.23,ENE,63,0.0,6.0,88,0.00,,CLR,0.00,VWS V14.01,2013-09-06 08:00:00,
2013-09-06 04:03:00,49.8,46.7,30.23,ENE,63,0.0,6.0,89,0.00,,CLR,0.00,VWS V14.01,2013-09-06 08:03:00,
2013-09-06 04:05:00,49.8,46.7,30.23,ENE,63,0.0,6.0,89,0.00,,CLR,0.00,VWS V14.01,2013-09-06 08:05:00,
2013-09-06 04:08:00,49.6,46.2,30.23,ENE,63,0.0,6.0,88,0.00,,CLR,0.00,VWS V14.01,2013-09-06 08:08:00,
2013-09-06 04:10:00,49.6,46.5,30.23,ENE,63,0.0,6.0,89,0.00,,CLR,0.00,VWS V14.01,2013-09-06 08:10:00,
2013-09-06 04:13:00,49.7,46.6,30.23,ENE,63,0.0,6.0,89,0.00,,CLR,0.00,VWS V14.01,2013-09-06 08:13:00,
2013-09-06 04:15:00,49.7,46.6,30.23,ENE,63,0.0,6.0,89,0.00,,CLR,0.00,VWS V14.01,2013-09-06 08:15:00,
2013-09-06 04:18:00,49.7,46.6,30.23,ENE,63,0.0,6.0,89,0.00,,CLR,0.00,VWS V14.01,2013-09-06 08:18:00,
2013-09-06 04:20:00,49.7,46.6,30.23,ENE,63,0.0,6.0,89,0.00,,CLR,0.00,VWS V14.01,2013-09-06 08:20:00,
2013-09-06 04:23:00,49.8,46.7,30.23,ENE,63,0.0,6.0,89,0.00,,CLR,0.00,VWS V14.01,2013-09-06 08:23:00,
2013-09-06 04:25:00,49.8,46.7,30.23,ENE,63,0.0,6.0,89,0.00,,CLR,0.00,VWS V14.01,2013-09-06 08:25:00,
2013-09-06 04:28:00,49.9,46.8,30.23,ENE,63,0.0,6.0,89,0.00,,CLR,0.00,VWS V14.01,2013-09-06 08:28:00,
2013-09-06 04:30:00,50.0,46.9,30.23,ENE,63,0.0,6.0,89,0.00,,CLR,0.00,VWS V14.01,2013-09-06 08:30:00,
2013-09-06 04:33:00,50.1,47.0,30.23,ENE,62,0.0,6.0,89,0.00,,CLR,0.00,VWS V14.01,2013-09-06 08:33:00,
2013-09-06 04:35:00,50.0,46.9,30.23,ENE,62,0.0,6.0,89,0.00,,CLR,0.00,VWS V14.01,2013-09-06 08:35:00,
2013-09-06 04:38:00,49.8,46.7,30.23,ENE,63,0.0,6.0,89,0.00,,CLR,0.00,VWS V14.01,2013-09-06 08:38:00,
2013-09-06 04:40:00,49.7,46.6,30.23,ENE,63,0.0,6.0,89,0.00,,CLR,0.00,VWS V14.01,2013-09-06 08:40:00,
2013-09-06 04:43:00,49.4,46.3,30.23,ENE,63,0.0,6.0,89,0.00,,CLR,0.00,VWS V14.01,2013-09-06 08:43:00,
2013-09-06 04:45:00,49.4,46.3,30.23,ENE,63,0.0,6.0,89,0.00,,CLR,0.00,VWS V14.01,2013-09-06 08:45:00,
2013-09-06 04:48:00,49.3,46.2,30.23,ENE,63,0.0,6.0,89,0.00,,CLR,0.00,VWS V14.01,2013-09-06 08:48:00,
2013-09-06 04:50:00,49.4,46.3,30.23,ENE,63,0.0,6.0,89,0.00,,CLR,0.00,VWS V14.01,2013-09-06 08:50:00,
2013-09-06 04:53:00,49.4,46.3,30.23,ENE,63,0.0,6.0,89,0.00,,CLR,0.00,VWS V14.01,2013-09-06 08:53:00,
2013-09-06 04:55:00,49.4,46.3,30.23,ENE,63,0.0,6.0,89,0.00,,CLR,0.00,VWS V14.01,2013-09-06 08:55:00,
2013-09-06 04:58:00,49.4,46.3,30.23,ENE,62,0.0,6.0,89,0.00,,CLR,0.00,VWS V14.01,2013-09-06 08:58:00,
2013-09-06 05:00:00,49.4,46.3,30.23,ENE,63,0.0,6.0,89,0.00,,CLR,0.00,VWS V14.01,2013-09-06 09:00:00,
2013-09-06 05:03:00,49.3,46.2,30.23,ENE,63,0.0,6.0,89,0.00,,CLR,0.00,VWS V14.01,2013-09-06 09:03:00,
2013-09-06 05:05:00,49.3,46.2,30.23,ENE,63,0.0,6.0,89,0.00,,CLR,0.00,VWS V14.01,2013-09-06 09:05:00,
2013-09-06 05:08:00,49.0,45.9,30.24,ENE,63,0.0,6.0,89,0.00,,CLR,0.00,VWS V14.01,2013-09-06 09:08:00,
2013-09-06 05:10:00,49.0,45.9,30.24,ENE,63,0.0,6.0,89,0.00,,CLR,0.00,VWS V14.01,2013-09-06 09:10:00,
2013-09-06 05:13:00,48.9,45.8,30.24,ENE,63,0.0,6.0,89,0.00,,CLR,0.00,VWS V14.01,2013-09-06 09:13:00,
2013-09-06 05:15:00,48.8,45.7,30.24,ENE,63,0.0,6.0,89,0.00,,CLR,0.00,VWS V14.01,2013-09-06 09:15:00,
2013-09-06 05:18:00,48.7,45.6,30.24,ENE,63,0.0,6.0,89,0.00,,CLR,0.00,VWS V14.01,2013-09-06 09:18:00,
2013-09-06 05:20:00,48.7,45.6,30.24,ENE,62,0.0,6.0,89,0.00,,CLR,0.00,VWS V14.01,2013-09-06 09:20:00,
2013-09-06 05:23:00,48.7,45.6,30.24,ENE,63,0.0,6.0,89,0.00,,CLR,0.00,VWS V14.01,2013-09-06 09:23:00,
2013-09-06 05:25:00,48.7,45.6,30.24,ENE,63,0.0,6.0,89,0.00,,CLR,0.00,VWS V14.01,2013-09-06 09:25:00,
2013-09-06 05:28:00,49.0,46.2,30.24,ENE,63,0.0,6.0,90,0.00,,CLR,0.00,VWS V14.01,2013-09-06 09:28:00,
2013-09-06 05:30:00,49.0,46.2,30.24,ENE,63,0.0,6.0,90,0.00,,CLR,0.00,VWS V14.01,2013-09-06 09:30:00,
2013-09-06 05:33:00,49.0,46.2,30.24,ENE,63,0.0,6.0,90,0.00,,CLR,0.00,VWS V14.01,2013-09-06 09:33:00,
2013-09-06 05:35:00,49.0,46.2,30.24,ENE,63,0.0,6.0,90,0.00,,CLR,0.00,VWS V14.01,2013-09-06 09:35:00,
2013-09-06 05:38:00,48.9,46.1,30.24,ENE,63,0.0,6.0,90,0.00,,CLR,0.00,VWS V14.01,2013-09-06 09:38:00,
2013-09-06 05:40:00,48.8,46.0,30.24,ENE,64,0.0,6.0,90,0.00,,CLR,0.00,VWS V14.01,2013-09-06 09:40:00,
2013-09-06 05:43:00,48.6,45.5,30.24,ENE,63,0.0,6.0,89,0.00,,CLR,0.00,VWS V14.01,2013-09-06 09:43:00,
2013-09-06 05:45:00,48.5,45.4,30.24,ENE,63,0.0,6.0,89,0.00,,CLR,0.00,VWS V14.01,2013-09-06 09:45:00,
2013-09-06 05:49:00,48.4,45.3,30.24,ENE,63,0.0,6.0,89,0.00,,CLR,0.00,VWS V14.01,2013-09-06 09:49:00,
2013-09-06 05:50:00,48.4,45.3,30.24,ENE,63,0.0,6.0,89,0.00,,CLR,0.00,VWS V14.01,2013-09-06 09:50:00,
2013-09-06 05:53:00,48.5,45.7,30.24,ENE,63,0.0,6.0,90,0.00,,CLR,0.00,VWS V14.01,2013-09-06 09:53:00,
2013-09-06 05:55:00,48.5,45.7,30.25,ENE,63,0.0,6.0,90,0.00,,CLR,0.00,VWS V14.01,2013-09-06 09:55:00,
2013-09-06 05:59:00,48.6,45.8,30.24,ENE,62,0.0,6.0,90,0.00,,CLR,0.00,VWS V14.01,2013-09-06 09:59:00,
2013-09-06 06:00:00,48.6,45.8,30.24,ENE,63,0.0,6.0,90,0.00,,CLR,0.00,VWS V14.01,2013-09-06 10:00:00,
2013-09-06 06:04:00,48.5,45.7,30.24,ENE,63,0.0,6.0,90,0.00,,CLR,0.00,VWS V14.01,2013-09-06 10:04:00,
2013-09-06 06:05:00,48.5,45.7,30.24,ENE,63,0.0,6.0,90,0.00,,CLR,0.00,VWS V14.01,2013-09-06 10:05:00,
2013-09-06 06:09:00,48.6,45.8,30.24,ENE,62,0.0,6.0,90,0.00,,CLR,0.00,VWS V14.01,2013-09-06 10:09:00,
2013-09-06 06:10:00,48.5,45.7,30.24,ENE,63,0.0,6.0,90,0.00,,CLR,0.00,VWS V14.01,2013-09-06 10:10:00,
2013-09-06 06:14:00,48.4,45.6,30.24,ENE,63,0.0,6.0,90,0.00,,CLR,0.00,VWS V14.01,2013-09-06 10:14:00,
2013-09-06 06:15:00,48.5,45.7,30.24,ENE,63,0.0,6.0,90,0.00,,CLR,0.00,VWS V14.01,2013-09-06 10:15:00,
2013-09-06 06:19:00,48.4,45.6,30.24,ENE,63,0.0,6.0,90,0.00,,CLR,0.00,VWS V14.01,2013-09-06 10:19:00,
2013-09-06 06:20:00,48.3,45.5,30.24,ENE,63,0.0,6.0,90,0.00,,CLR,0.00,VWS V14.01,2013-09-06 10:20:00,
2013-09-06 06:24:00,48.1,45.3,30.24,ENE,63,0.0,6.0,90,0.00,,CLR,0.00,VWS V14.01,2013-09-06 10:24:00,
2013-09-06 06:25:00,48.1,45.3,30.24,ENE,63,0.0,6.0,90,0.00,,CLR,0.00,VWS V14.01,2013-09-06 10:25:00,
2013-09-06 06:29:00,47.8,45.0,30.25,ENE,63,0.0,6.0,90,0.00,,CLR,0.00,VWS V14.01,2013-09-06 10:29:00,
2013-09-06 06:30:00,47.8,45.0,30.25,ENE,63,0.0,6.0,90,0.00,,CLR,0.00,VWS V14.01,2013-09-06 10:30:00,
2013-09-06 06:34:00,47.5,44.7,30.25,ENE,63,0.0,6.0,90,0.00,,CLR,0.00,VWS V14.01,2013-09-06 10:34:00,
2013-09-06 06:35:00,47.5,44.7,30.25,ENE,62,0.0,6.0,90,0.00,,CLR,0.00,VWS V14.01,2013-09-06 10:35:00,
2013-09-06 06:39:00,47.3,44.5,30.25,ENE,63,0.0,6.0,90,0.00,,CLR,0.00,VWS V14.01,2013-09-06 10:39:00,
2013-09-06 06:40:00,47.3,44.5,30.25,ENE,63,0.0,6.0,90,0.00,,CLR,0.00,VWS V14.01,2013-09-06 10:40:00,
2013-09-06 06:44:00,47.2,44.4,30.25,ENE,63,0.0,6.0,90,0.00,,CLR,0.00,VWS V14.01,2013-09-06 10:44:00,
2013-09-06 06:45:00,47.2,44.4,30.25,ENE,63,0.0,6.0,90,0.00,,CLR,0.00,VWS V14.01,2013-09-06 10:45:00,
2013-09-06 06:49:00,47.4,44.6,30.24,ENE,63,0.0,6.0,90,0.00,,CLR,0.00,VWS V14.01,2013-09-06 10:49:00,
2013-09-06 06:50:00,47.5,44.7,30.24,ENE,63,0.0,6.0,90,0.00,,CLR,0.00,VWS V14.01,2013-09-06 10:50:00,
2013-09-06 06:54:00,47.6,44.8,30.25,ENE,63,0.0,6.0,90,0.00,,CLR,0.00,VWS V14.01,2013-09-06 10:54:00,
2013-09-06 06:55:00,47.6,44.8,30.25,ENE,63,0.0,6.0,90,0.00,,CLR,0.00,VWS V14.01,2013-09-06 10:55:00,
2013-09-06 06:59:00,47.6,44.8,30.25,ENE,63,0.0,6.0,90,0.00,,CLR,0.00,VWS V14.01,2013-09-06 10:59:00,
2013-09-06 07:00:00,47.6,44.8,30.25,ENE,63,0.0,6.0,90,0.00,,CLR,0.00,VWS V14.01,2013-09-06 11:00:00,
2013-09-06 07:04:00,47.7,44.9,30.25,ENE,63,0.0,6.0,90,0.00,,CLR,0.00,VWS V14.01,2013-09-06 11:04:00,
2013-09-06 07:05:00,47.7,44.9,30.25,ENE,64,0.0,6.0,90,0.00,,CLR,0.00,VWS V14.01,2013-09-06 11:05:00,
2013-09-06 07:09:00,47.9,45.1,30.25,ENE,63,0.0,6.0,90,0.00,,CLR,0.00,VWS V14.01,2013-09-06 11:09:00,
2013-09-06 07:10:00,47.9,45.1,30.25,ENE,63,0.0,6.0,90,0.00,,CLR,0.00,VWS V14.01,2013-09-06 11:10:00,
2013-09-06 07:14:00,48.0,45.2,30.25,ENE,63,0.0,6.0,90,0.00,,CLR,0.00,VWS V14.01,2013-09-06 11:14:00,
2013-09-06 07:15:00,48.1,45.6,30.25,ENE,63,0.0,6.0,91,0.00,,CLR,0.00,VWS V14.01,2013-09-06 11:15:00,
2013-09-06 07:19:00,48.2,45.7,30.25,ENE,63,0.0,6.0,91,0.00,,CLR,0.00,VWS V14.01,2013-09-06 11:19:00,
2013-09-06 07:20:00,48.2,45.7,30.25,ENE,63,0.0,6.0,91,0.00,,CLR,0.00,VWS V14.01,2013-09-06 11:20:00,
2013-09-06 07:24:00,48.2,45.4,30.25,ENE,64,0.0,6.0,90,0.00,,CLR,0.00,VWS V14.01,2013-09-06 11:24:00,
2013-09-06 07:25:00,48.2,45.4,30.25,ENE,63,0.0,6.0,90,0.00,,CLR,0.00,VWS V14.01,2013-09-06 11:25:00,
2013-09-06 07:29:00,47.9,45.1,30.25,ENE,63,0.0,6.0,90,0.00,,CLR,0.00,VWS V14.01,2013-09-06 11:29:00,
2013-09-06 07:30:00,47.8,45.0,30.25,ENE,62,0.0,6.0,90,0.00,,CLR,0.00,VWS V14.01,2013-09-06 11:30:00,
2013-09-06 07:34:00,48.2,45.4,30.25,ENE,64,0.0,6.0,90,0.00,,CLR,0.00,VWS V14.01,2013-09-06 11:34:00,
2013-09-06 07:35:00,48.2,45.7,30.25,ENE,64,0.0,6.0,91,0.00,,CLR,0.00,VWS V14.01,2013-09-06 11:35:00,
2013-09-06 07:39:00,48.5,46.0,30.25,ENE,63,0.0,6.0,91,0.00,,CLR,0.00,VWS V14.01,2013-09-06 11:39:00,
2013-09-06 07:40:00,48.5,46.0,30.25,ENE,63,0.0,6.0,91,0.00,,CLR,0.00,VWS V14.01,2013-09-06 11:40:00,
2013-09-06 07:44:00,48.8,46.3,30.25,ENE,63,0.0,6.0,91,0.00,,CLR,0.00,VWS V14.01,2013-09-06 11:44:00,
2013-09-06 07:45:00,48.8,46.3,30.25,ENE,64,0.0,6.0,91,0.00,,CLR,0.00,VWS V14.01,2013-09-06 11:45:00,
2013-09-06 07:49:00,49.1,46.6,30.25,ENE,64,0.0,6.0,91,0.00,,CLR,0.00,VWS V14.01,2013-09-06 11:49:00,
2013-09-06 07:50:00,49.1,46.6,30.25,ENE,64,0.0,6.0,91,0.00,,CLR,0.00,VWS V14.01,2013-09-06 11:50:00,
2013-09-06 07:54:00,49.6,47.1,30.25,ENE,76,1.0,6.0,91,0.00,,CLR,0.00,VWS V14.01,2013-09-06 11:54:00,
2013-09-06 07:55:00,49.6,47.1,30.25,ENE,76,0.0,6.0,91,0.00,,CLR,0.00,VWS V14.01,2013-09-06 11:55:00,
2013-09-06 07:59:00,50.1,47.6,30.25,ENE,78,0.0,6.0,91,0.00,,CLR,0.00,VWS V14.01,2013-09-06 11:59:00,
2013-09-06 08:00:00,50.2,47.7,30.25,ENE,78,1.0,6.0,91,0.00,,CLR,0.00,VWS V14.01,2013-09-06 12:00:00,
2013-09-06 08:04:00,50.6,48.1,30.25,East,79,0.0,6.0,91,0.00,,CLR,0.00,VWS V14.01,2013-09-06 12:04:00,
2013-09-06 08:05:00,50.6,48.1,30.25,East,79,1.0,6.0,91,0.00,,CLR,0.00,VWS V14.01,2013-09-06 12:05:00,
2013-09-06 08:09:00,51.0,48.5,30.25,East,81,0.0,6.0,91,0.00,,CLR,0.00,VWS V14.01,2013-09-06 12:09:00,
2013-09-06 08:10:00,51.1,48.6,30.26,East,82,0.0,6.0,91,0.00,,CLR,0.00,VWS V14.01,2013-09-06 12:10:00,
2013-09-06 08:14:00,51.6,49.1,30.26,East,81,0.0,6.0,91,0.00,,CLR,0.00,VWS V14.01,2013-09-06 12:14:00,
2013-09-06 08:15:00,51.7,49.2,30.26,East,82,0.0,6.0,91,0.00,,CLR,0.00,VWS V14.01,2013-09-06 12:15:00,
2013-09-06 08:19:00,52.5,50.0,30.26,East,83,2.0,6.0,91,0.00,,CLR,0.00,VWS V14.01,2013-09-06 12:19:00,
2013-09-06 08:20:00,52.6,50.0,30.26,ENE,72,1.0,6.0,91,0.00,,CLR,0.00,VWS V14.01,2013-09-06 12:20:00,
2013-09-06 08:24:00,53.5,50.9,30.26,ENE,72,0.0,6.0,91,0.00,,CLR,0.00,VWS V14.01,2013-09-06 12:24:00,
2013-09-06 08:25:00,53.7,51.1,30.26,ENE,72,0.0,6.0,91,0.00,,CLR,0.00,VWS V14.01,2013-09-06 12:25:00,
2013-09-06 08:29:00,54.5,51.6,30.26,ESE,104,2.0,6.0,90,0.00,,CLR,0.00,VWS V14.01,2013-09-06 12:29:00,
2013-09-06 08:30:00,54.6,51.4,30.26,ESE,102,1.0,6.0,89,0.00,,CLR,0.00,VWS V14.01,2013-09-06 12:30:00,
2013-09-06 08:34:00,55.2,51.4,30.26,East,82,0.0,6.0,87,0.00,,CLR,0.00,VWS V14.01,2013-09-06 12:34:00,
2013-09-06 08:35:00,55.3,51.5,30.26,East,82,0.0,6.0,87,0.00,,CLR,0.00,VWS V14.01,2013-09-06 12:35:00,
2013-09-06 08:39:00,56.0,51.2,30.26,East,99,3.0,6.0,84,0.00,,CLR,0.00,VWS V14.01,2013-09-06 12:39:00,
2013-09-06 08:40:00,56.0,51.2,30.26,East,101,3.0,6.0,84,0.00,,CLR,0.00,VWS V14.01,2013-09-06 12:40:00,
2013-09-06 08:44:00,56.5,51.1,30.26,East,98,3.0,6.0,82,0.00,,CLR,0.00,VWS V14.01,2013-09-06 12:44:00,
2013-09-06 08:45:00,56.5,51.1,30.26,SE,131,2.0,6.0,82,0.00,,CLR,0.00,VWS V14.01,2013-09-06 12:45:00,
2013-09-06 08:49:00,56.8,50.7,30.26,NE,56,1.0,6.0,80,0.00,,CLR,0.00,VWS V14.01,2013-09-06 12:49:00,
2013-09-06 08:50:00,56.9,50.8,30.26,NE,56,0.0,6.0,80,0.00,,CLR,0.00,VWS V14.01,2013-09-06 12:50:00,
2013-09-06 08:54:00,57.3,50.8,30.26,ENE,59,1.0,6.0,79,0.00,,CLR,0.00,VWS V14.01,2013-09-06 12:54:00,
2013-09-06 08:55:00,57.3,50.8,30.26,East,99,1.0,6.0,79,0.00,,CLR,0.00,VWS V14.01,2013-09-06 12:55:00,
2013-09-06 08:59:00,57.9,51.1,30.25,East,88,3.0,6.0,78,0.00,,CLR,0.00,VWS V14.01,2013-09-06 12:59:00,
2013-09-06 09:00:00,58.0,51.2,30.25,ESE,115,2.0,6.0,78,0.00,,CLR,0.00,VWS V14.01,2013-09-06 13:00:00,
2013-09-06 09:04:00,58.5,51.0,30.25,East,84,2.0,6.0,76,0.00,,CLR,0.00,VWS V14.01,2013-09-06 13:04:00,
2013-09-06 09:05:00,58.5,51.0,30.25,East,94,1.0,6.0,76,0.00,,CLR,0.00,VWS V14.01,2013-09-06 13:05:00,
2013-09-06 09:09:00,59.0,51.5,30.25,ENE,58,2.0,6.0,76,0.00,,CLR,0.00,VWS V14.01,2013-09-06 13:09:00,
2013-09-06 09:10:00,59.0,51.5,30.25,ENE,60,2.0,6.0,76,0.00,,CLR,0.00,VWS V14.01,2013-09-06 13:10:00,
2013-09-06 09:14:00,59.2,51.3,30.25,East,82,1.0,6.0,75,0.00,,CLR,0.00,VWS V14.01,2013-09-06 13:14:00,
2013-09-06 09:15:00,59.3,51.4,30.25,East,82,1.0,6.0,75,0.00,,CLR,0.00,VWS V14.01,2013-09-06 13:15:00,
2013-09-06 09:19:00,59.8,51.5,30.25,ESE,106,2.0,6.0,74,0.00,,CLR,0.00,VWS V14.01,2013-09-06 13:19:00,
2013-09-06 09:20:00,59.7,51.4,30.25,East,86,4.0,6.0,74,0.00,,CLR,0.00,VWS V14.01,2013-09-06 13:20:00,
2013-09-06 09:25:00,60.1,51.4,30.25,ESE,118,2.0,6.0,73,0.00,,CLR,0.00,VWS V14.01,2013-09-06 13:25:00,
2013-09-06 09:30:00,61.1,53.5,30.25,ESE,120,0.0,6.0,76,0.00,,CLR,0.00,VWS V14.01,2013-09-06 13:30:00,
2013-09-06 09:35:00,62.2,53.1,30.25,ENE,61,1.0,6.0,72,0.00,,CLR,0.00,VWS V14.01,2013-09-06 13:35:00,
2013-09-06 09:40:00,62.4,53.3,30.25,NE,54,1.0,6.0,72,0.00,,CLR,0.00,VWS V14.01,2013-09-06 13:40:00,
2013-09-06 09:45:00,62.3,52.4,30.25,East,84,3.0,6.0,70,0.00,,CLR,0.00,VWS V14.01,2013-09-06 13:45:00,
2013-09-06 09:50:00,62.5,52.6,30.25,ENE,61,0.0,6.0,70,0.00,,CLR,0.00,VWS V14.01,2013-09-06 13:50:00,
2013-09-06 09:55:00,62.9,52.6,30.25,ENE,59,1.0,6.0,69,0.00,,CLR,0.00,VWS V14.01,2013-09-06 13:55:00,
2013-09-06 10:00:00,63.0,52.3,30.25,ENE,65,2.0,6.0,68,0.00,,CLR,0.00,VWS V14.01,2013-09-06 14:00:00,
2013-09-06 10:05:00,63.2,52.5,30.25,ENE,73,2.0,6.0,68,0.00,,CLR,0.00,VWS V14.01,2013-09-06 14:05:00,
2013-09-06 10:10:00,63.6,52.0,30.25,ESE,105,3.0,6.0,66,0.00,,CLR,0.00,VWS V14.01,2013-09-06 14:10:00,
2013-09-06 10:15:00,63.6,52.5,30.25,NE,37,1.0,6.0,67,0.00,,CLR,0.00,VWS V14.01,2013-09-06 14:15:00,
2013-09-06 10:20:00,63.8,52.7,30.25,East,94,2.0,6.0,67,0.00,,CLR,0.00,VWS V14.01,2013-09-06 14:20:00,
2013-09-06 10:25:00,63.9,51.9,30.25,East,99,2.0,6.0,65,0.00,,CLR,0.00,VWS V14.01,2013-09-06 14:25:00,
2013-09-06 10:30:00,64.0,52.0,30.25,ENE,63,2.0,6.0,65,0.00,,CLR,0.00,VWS V14.01,2013-09-06 14:30:00,
2013-09-06 10:35:00,64.3,51.9,30.25,ENE,65,0.0,6.0,64,0.00,,CLR,0.00,VWS V14.01,2013-09-06 14:35:00,
2013-09-06 10:40:00,64.4,51.5,30.25,ENE,67,1.0,6.0,63,0.00,,CLR,0.00,VWS V14.01,2013-09-06 14:40:00,
2013-09-06 10:45:00,64.6,51.7,30.25,NE,53,2.0,6.0,63,0.00,,CLR,0.00,VWS V14.01,2013-09-06 14:45:00,
2013-09-06 10:50:00,64.8,51.5,30.25,ENE,72,3.0,6.0,62,0.00,,CLR,0.00,VWS V14.01,2013-09-06 14:50:00,
2013-09-06 10:55:00,64.7,51.0,30.25,ENE,67,1.0,6.0,61,0.00,,CLR,0.00,VWS V14.01,2013-09-06 14:55:00,
2013-09-06 11:00:00,65.0,51.2,30.25,NE,51,2.0,6.0,61,0.00,,CLR,0.00,VWS V14.01,2013-09-06 15:00:00,
2013-09-06 11:05:00,65.5,51.3,30.25,NE,56,0.0,6.0,60,0.00,,CLR,0.00,VWS V14.01,2013-09-06 15:05:00,
2013-09-06 11:10:00,65.3,50.6,30.25,West,278,1.0,6.0,59,0.00,,CLR,0.00,VWS V14.01,2013-09-06 15:10:00,
2013-09-06 11:15:00,65.5,49.9,30.24,ENE,63,1.0,6.0,57,0.00,,CLR,0.00,VWS V14.01,2013-09-06 15:15:00,
2013-09-06 11:20:00,66.1,50.4,30.25,NE,52,3.0,6.0,57,0.00,,CLR,0.00,VWS V14.01,2013-09-06 15:20:00,
2013-09-06 11:25:00,66.1,50.0,30.24,NNW,338,1.0,6.0,56,0.00,,CLR,0.00,VWS V14.01,2013-09-06 15:25:00,
2013-09-06 11:30:00,66.1,49.0,30.24,ENE,70,1.0,6.0,54,0.00,,CLR,0.00,VWS V14.01,2013-09-06 15:30:00,
2013-09-06 11:35:00,66.7,48.5,30.24,ESE,118,2.0,6.0,52,0.00,,CLR,0.00,VWS V14.01,2013-09-06 15:35:00,
2013-09-06 11:40:00,66.9,47.7,30.24,ENE,59,2.0,6.0,50,0.00,,CLR,0.00,VWS V14.01,2013-09-06 15:40:00,
2013-09-06 11:45:00,67.0,48.8,30.24,NE,41,1.0,6.0,52,0.00,,CLR,0.00,VWS V14.01,2013-09-06 15:45:00,
2013-09-06 11:50:00,67.4,48.1,30.24,ENE,63,2.0,6.0,50,0.00,,CLR,0.00,VWS V14.01,2013-09-06 15:50:00,
2013-09-06 11:55:00,67.6,47.8,30.24,ENE,72,1.0,6.0,49,0.00,,CLR,0.00,VWS V14.01,2013-09-06 15:55:00,
2013-09-06 12:00:00,67.6,48.3,30.23,ENE,57,1.0,6.0,50,0.00,,CLR,0.00,VWS V14.01,2013-09-06 16:00:00,
2013-09-06 12:05:00,67.8,46.9,30.24,SE,124,1.0,6.0,47,0.00,,CLR,0.00,VWS V14.01,2013-09-06 16:05:00,
2013-09-06 12:10:00,68.0,49.2,30.23,East,82,1.0,6.0,51,0.00,,CLR,0.00,VWS V14.01,2013-09-06 16:10:00,
2013-09-06 12:15:00,67.8,47.4,30.23,South,172,0.0,6.0,48,0.00,,CLR,0.00,VWS V14.01,2013-09-06 16:15:00,
2013-09-06 12:20:00,68.0,49.2,30.23,ENE,77,2.0,6.0,51,0.00,,CLR,0.00,VWS V14.01,2013-09-06 16:20:00,
2013-09-06 12:25:00,68.6,49.2,30.23,NNE,27,3.0,6.0,50,0.00,,CLR,0.00,VWS V14.01,2013-09-06 16:25:00,
2013-09-06 12:30:00,69.2,47.6,30.23,West,279,0.0,6.0,46,0.00,,CLR,0.00,VWS V14.01,2013-09-06 16:30:00,
2013-09-06 12:35:00,69.7,46.8,30.23,NE,42,2.0,6.0,44,0.00,,CLR,0.00,VWS V14.01,2013-09-06 16:35:00,
2013-09-06 12:40:00,70.0,48.3,30.22,ENE,75,1.0,6.0,46,0.00,,CLR,0.00,VWS V14.01,2013-09-06 16:40:00,
2013-09-06 12:45:00,70.4,48.7,30.22,WNW,293,0.0,6.0,46,0.00,,CLR,0.00,VWS V14.01,2013-09-06 16:45:00,
2013-09-06 12:50:00,71.0,48.6,30.22,ESE,116,2.0,6.0,45,0.00,,CLR,0.00,VWS V14.01,2013-09-06 16:50:00,
2013-09-06 12:55:00,71.0,46.1,30.22,NE,56,2.0,6.0,41,0.00,,CLR,0.00,VWS V14.01,2013-09-06 16:55:00,
2013-09-06 13:00:00,71.6,47.3,30.22,East,86,1.0,6.0,42,0.00,,CLR,0.00,VWS V14.01,2013-09-06 17:00:00,
2013-09-06 13:05:00,72.1,45.1,30.22,ESE,103,3.0,6.0,38,0.00,,CLR,0.00,VWS V14.01,2013-09-06 17:05:00,
2013-09-06 13:10:00,72.3,45.3,30.21,WSW,255,2.0,6.0,38,0.00,,CLR,0.00,VWS V14.01,2013-09-06 17:10:00,
2013-09-06 13:15:00,72.7,45.0,30.21,WSW,242,0.0,6.0,37,0.00,,CLR,0.00,VWS V14.01,2013-09-06 17:15:00,
2013-09-06 13:20:00,73.4,47.6,30.21,ESE,117,1.0,6.0,40,0.00,,CLR,0.00,VWS V14.01,2013-09-06 17:20:00,
2013-09-06 13:25:00,73.2,44.7,30.21,ENE,68,3.0,6.0,36,0.00,,CLR,0.00,VWS V14.01,2013-09-06 17:25:00,
2013-09-06 13:30:00,73.2,46.1,30.21,WSW,245,2.0,6.0,38,0.00,,CLR,0.00,VWS V14.01,2013-09-06 17:30:00,
2013-09-06 13:31:00,73.2,43.9,30.21,South,186,1.0,6.0,35,0.00,,CLR,0.00,VWS V14.01,2013-09-06 17:31:00,
2013-09-06 13:35:00,73.7,45.1,30.21,ESE,105,1.0,6.0,36,0.00,,CLR,0.00,VWS V14.01,2013-09-06 17:35:00,
2013-09-06 13:40:00,73.8,45.9,30.20,ENE,75,1.0,6.0,37,0.00,,CLR,0.00,VWS V14.01,2013-09-06 17:40:00,
2013-09-06 13:41:00,73.9,44.5,30.20,SE,146,0.0,6.0,35,0.00,,CLR,0.00,VWS V14.01,2013-09-06 17:41:00,
2013-09-06 13:45:00,74.5,47.2,30.20,SE,143,0.0,6.0,38,0.00,,CLR,0.00,VWS V14.01,2013-09-06 17:45:00,
2013-09-06 13:46:00,74.6,47.3,30.20,ESE,113,0.0,6.0,38,0.00,,CLR,0.00,VWS V14.01,2013-09-06 17:46:00,
2013-09-06 13:50:00,75.4,47.3,30.20,SE,139,0.0,6.0,37,0.00,,CLR,0.00,VWS V14.01,2013-09-06 17:50:00,
2013-09-06 13:51:00,75.6,48.9,30.20,SE,132,1.0,6.0,39,0.00,,CLR,0.00,VWS V14.01,2013-09-06 17:51:00,
2013-09-06 13:55:00,75.6,45.3,30.20,ESE,106,3.0,6.0,34,0.00,,CLR,0.00,VWS V14.01,2013-09-06 17:55:00,
2013-09-06 13:56:00,75.4,44.3,30.20,ESE,113,1.0,6.0,33,0.00,,CLR,0.00,VWS V14.01,2013-09-06 17:56:00,
2013-09-06 14:00:00,74.7,42.1,30.20,ESE,113,1.0,6.0,31,0.00,,CLR,0.00,VWS V14.01,2013-09-06 18:00:00,
2013-09-06 14:01:00,74.5,43.5,30.20,WSW,239,0.0,6.0,33,0.00,,CLR,0.00,VWS V14.01,2013-09-06 18:01:00,
2013-09-06 14:05:00,74.5,42.7,30.20,NE,51,2.0,6.0,32,0.00,,CLR,0.00,VWS V14.01,2013-09-06 18:05:00,
2013-09-06 14:06:00,74.5,43.5,30.20,ESE,120,1.0,6.0,33,0.00,,CLR,0.00,VWS V14.01,2013-09-06 18:06:00,
2013-09-06 14:10:00,74.8,46.1,30.19,ESE,123,1.0,6.0,36,0.00,,CLR,0.00,VWS V14.01,2013-09-06 18:10:00,
2013-09-06 14:11:00,74.9,44.7,30.19,ESE,113,3.0,6.0,34,0.00,,CLR,0.00,VWS V14.01,2013-09-06 18:11:00,
2013-09-06 14:15:00,74.8,43.0,30.19,ESE,110,2.0,6.0,32,0.00,,CLR,0.00,VWS V14.01,2013-09-06 18:15:00,
2013-09-06 14:16:00,74.7,43.7,30.19,East,94,1.0,6.0,33,0.00,,CLR,0.00,VWS V14.01,2013-09-06 18:16:00,
2013-09-06 14:20:00,74.7,43.7,30.19,East,81,2.0,6.0,33,0.00,,CLR,0.00,VWS V14.01,2013-09-06 18:20:00,
2013-09-06 14:21:00,74.7,44.5,30.19,East,101,3.0,6.0,34,0.00,,CLR,0.00,VWS V14.01,2013-09-06 18:21:00,
2013-09-06 14:25:00,75.0,42.3,30.19,ENE,70,1.0,6.0,31,0.00,,CLR,0.00,VWS V14.01,2013-09-06 18:25:00,
2013-09-06 14:26:00,75.2,43.3,30.19,East,93,4.0,6.0,32,0.00,,CLR,0.00,VWS V14.01,2013-09-06 18:26:00,
2013-09-06 14:30:00,75.2,44.2,30.19,ENE,65,2.0,6.0,33,0.00,,CLR,0.00,VWS V14.01,2013-09-06 18:30:00,
2013-09-06 14:31:00,75.3,43.4,30.19,ESE,104,2.0,6.0,32,0.00,,CLR,0.00,VWS V14.01,2013-09-06 18:31:00,
2013-09-06 14:35:00,75.4,41.8,30.19,WNW,302,1.0,6.0,30,0.00,,CLR,0.00,VWS V14.01,2013-09-06 18:35:00,
2013-09-06 14:36:00,75.6,45.3,30.19,East,100,0.0,6.0,34,0.00,,CLR,0.00,VWS V14.01,2013-09-06 18:36:00,
2013-09-06 14:40:00,76.3,47.4,30.18,NE,37,0.0,6.0,36,0.00,,CLR,0.00,VWS V14.01,2013-09-06 18:40:00,
2013-09-06 14:41:00,76.6,47.7,30.18,NE,40,0.0,6.0,36,0.00,,CLR,0.00,VWS V14.01,2013-09-06 18:41:00,
2013-09-06 14:45:00,77.1,47.4,30.18,ESE,117,0.0,6.0,35,0.00,,CLR,0.00,VWS V14.01,2013-09-06 18:45:00,
2013-09-06 14:46:00,77.4,46.9,30.18,ESE,117,0.0,6.0,34,0.00,,CLR,0.00,VWS V14.01,2013-09-06 18:46:00,
2013-09-06 14:50:00,77.7,48.7,30.18,NNE,15,1.0,6.0,36,0.00,,CLR,0.00,VWS V14.01,2013-09-06 18:50:00,
2013-09-06 14:51:00,77.8,44.8,30.18,East,101,3.0,6.0,31,0.00,,CLR,0.00,VWS V14.01,2013-09-06 18:51:00,
2013-09-06 14:55:00,77.6,47.8,30.18,SE,128,3.0,6.0,35,0.00,,CLR,0.00,VWS V14.01,2013-09-06 18:55:00,
2013-09-06 14:56:00,77.5,41.9,30.17,South,188,0.0,6.0,28,0.00,,CLR,0.00,VWS V14.01,2013-09-06 18:56:00,
2013-09-06 15:00:00,77.3,46.8,30.17,ENE,74,1.0,6.0,34,0.00,,CLR,0.00,VWS V14.01,2013-09-06 19:00:00,
2013-09-06 15:01:00,77.0,43.2,30.17,NE,43,0.0,6.0,30,0.00,,CLR,0.00,VWS V14.01,2013-09-06 19:01:00,
2013-09-06 15:05:00,76.6,42.0,30.17,NNW,339,0.0,6.0,29,0.00,,CLR,0.00,VWS V14.01,2013-09-06 19:05:00,
2013-09-06 15:06:00,76.5,42.8,30.17,ENE,59,2.0,6.0,30,0.00,,CLR,0.00,VWS V14.01,2013-09-06 19:06:00,
2013-09-06 15:10:00,76.3,41.7,30.17,ENE,72,0.0,6.0,29,0.00,,CLR,0.00,VWS V14.01,2013-09-06 19:10:00,
2013-09-06 15:11:00,76.2,39.8,30.17,NW,304,2.0,6.0,27,0.00,,CLR,0.00,VWS V14.01,2013-09-06 19:11:00,
2013-09-06 15:15:00,75.9,40.5,30.16,NW,325,0.0,6.0,28,0.00,,CLR,0.00,VWS V14.01,2013-09-06 19:15:00,
2013-09-06 15:16:00,75.9,42.3,30.16,NW,325,0.0,6.0,30,0.00,,CLR,0.00,VWS V14.01,2013-09-06 19:16:00,
2013-09-06 15:20:00,76.2,45.0,30.16,ESE,105,1.0,6.0,33,0.00,,CLR,0.00,VWS V14.01,2013-09-06 19:20:00,
2013-09-06 15:21:00,76.3,43.5,30.16,North,11,1.0,6.0,31,0.00,,CLR,0.00,VWS V14.01,2013-09-06 19:21:00,
2013-09-06 15:25:00,76.3,42.6,30.16,WNW,285,0.0,6.0,30,0.00,,CLR,0.00,VWS V14.01,2013-09-06 19:25:00,
2013-09-06 15:26:00,76.3,41.7,30.16,WNW,285,0.0,6.0,29,0.00,,CLR,0.00,VWS V14.01,2013-09-06 19:26:00,
2013-09-06 15:30:00,76.5,45.3,30.16,SE,127,0.0,6.0,33,0.00,,CLR,0.00,VWS V14.01,2013-09-06 19:30:00,
2013-09-06 15:31:00,76.6,42.0,30.16,NE,40,1.0,6.0,29,0.00,,CLR,0.00,VWS V14.01,2013-09-06 19:31:00,
2013-09-06 15:35:00,76.1,47.2,30.16,West,266,0.0,6.0,36,0.00,,CLR,0.00,VWS V14.01,2013-09-06 19:35:00,
2013-09-06 15:36:00,75.9,46.3,30.15,NNE,32,2.0,6.0,35,0.00,,CLR,0.00,VWS V14.01,2013-09-06 19:36:00,
2013-09-06 15:40:00,75.9,44.8,30.16,SSE,149,1.0,6.0,33,0.00,,CLR,0.00,VWS V14.01,2013-09-06 19:40:00,
2013-09-06 15:41:00,75.8,43.9,30.16,South,170,0.0,6.0,32,0.00,,CLR,0.00,VWS V14.01,2013-09-06 19:41:00,
2013-09-06 15:45:00,75.6,42.0,30.15,SSE,148,1.0,6.0,30,0.00,,CLR,0.00,VWS V14.01,2013-09-06 19:45:00,
2013-09-06 15:46:00,75.5,46.7,30.16,SSE,148,0.0,6.0,36,0.00,,CLR,0.00,VWS V14.01,2013-09-06 19:46:00,
2013-09-06 15:50:00,75.3,45.8,30.15,SSW,200,0.0,6.0,35,0.00,,CLR,0.00,VWS V14.01,2013-09-06 19:50:00,
2013-09-06 15:51:00,75.2,45.7,30.15,ESE,108,1.0,6.0,35,0.00,,CLR,0.00,VWS V14.01,2013-09-06 19:51:00,
2013-09-06 15:55:00,75.0,41.5,30.15,NNE,19,1.0,6.0,30,0.00,,CLR,0.00,VWS V14.01,2013-09-06 19:55:00,
2013-09-06 15:56:00,75.1,41.6,30.15,SSW,212,1.0,6.0,30,0.00,,CLR,0.00,VWS V14.01,2013-09-06 19:56:00,
2013-09-06 16:00:00,75.1,44.8,30.15,SSW,211,0.0,6.0,34,0.00,,CLR,0.00,VWS V14.01,2013-09-06 20:00:00,
2013-09-06 16:01:00,75.1,42.4,30.15,SSW,212,0.0,6.0,31,0.00,,CLR,0.00,VWS V14.01,2013-09-06 20:01:00,
2013-09-06 16:05:00,75.3,41.8,30.15,SW,222,1.0,6.0,30,0.00,,CLR,0.00,VWS V14.01,2013-09-06 20:05:00,
2013-09-06 16:06:00,75.3,41.8,30.15,WSW,238,0.0,6.0,30,0.00,,CLR,0.00,VWS V14.01,2013-09-06 20:06:00,
2013-09-06 16:10:00,75.3,45.0,30.15,South,176,1.0,6.0,34,0.00,,CLR,0.00,VWS V14.01,2013-09-06 20:10:00,
2013-09-06 16:11:00,75.2,44.9,30.15,SE,133,1.0,6.0,34,0.00,,CLR,0.00,VWS V14.01,2013-09-06 20:11:00,
2013-09-06 16:15:00,75.1,44.1,30.15,ESE,112,1.0,6.0,33,0.00,,CLR,0.00,VWS V14.01,2013-09-06 20:15:00,
2013-09-06 16:16:00,75.0,44.0,30.15,SE,142,0.0,6.0,33,0.00,,CLR,0.00,VWS V14.01,2013-09-06 20:16:00,
2013-09-06 16:20:00,75.0,42.3,30.15,NW,309,1.0,6.0,31,0.00,,CLR,0.00,VWS V14.01,2013-09-06 20:20:00,
2013-09-06 16:21:00,75.0,42.3,30.15,NNW,336,0.0,6.0,31,0.00,,CLR,0.00,VWS V14.01,2013-09-06 20:21:00,
2013-09-06 16:25:00,75.1,45.6,30.15,NNW,334,0.0,6.0,35,0.00,,CLR,0.00,VWS V14.01,2013-09-06 20:25:00,
2013-09-06 16:26:00,75.1,45.6,30.15,ESE,103,0.0,6.0,35,0.00,,CLR,0.00,VWS V14.01,2013-09-06 20:26:00,
2013-09-06 16:30:00,75.0,44.0,30.14,East,86,0.0,6.0,33,0.00,,CLR,0.00,VWS V14.01,2013-09-06 20:30:00,
2013-09-06 16:31:00,75.0,44.8,30.14,East,86,0.0,6.0,34,0.00,,CLR,0.00,VWS V14.01,2013-09-06 20:31:00,
2013-09-06 16:35:00,75.1,44.1,30.14,East,101,0.0,6.0,33,0.00,,CLR,0.00,VWS V14.01,2013-09-06 20:35:00,
2013-09-06 16:36:00,75.1,42.4,30.14,SSE,163,0.0,6.0,31,0.00,,CLR,0.00,VWS V14.01,2013-09-06 20:36:00,
2013-09-06 16:40:00,75.3,44.2,30.14,SSE,163,0.0,6.0,33,0.00,,CLR,0.00,VWS V14.01,2013-09-06 20:40:00,
2013-09-06 16:41:00,75.3,41.8,30.14,SSE,159,0.0,6.0,30,0.00,,CLR,0.00,VWS V14.01,2013-09-06 20:41:00,
2013-09-06 16:45:00,75.5,41.0,30.14,SSE,155,0.0,6.0,29,0.00,,CLR,0.00,VWS V14.01,2013-09-06 20:45:00,
2013-09-06 16:46:00,75.6,42.9,30.14,East,97,2.0,6.0,31,0.00,,CLR,0.00,VWS V14.01,2013-09-06 20:46:00,
2013-09-06 16:50:00,75.8,43.0,30.14,ENE,66,0.0,6.0,31,0.00,,CLR,0.00,VWS V14.01,2013-09-06 20:50:00,
2013-09-06 16:51:00,75.9,45.5,30.14,ENE,68,0.0,6.0,34,0.00,,CLR,0.00,VWS V14.01,2013-09-06 20:51:00,
2013-09-06 16:55:00,75.9,44.8,30.14,ENE,77,0.0,6.0,33,0.00,,CLR,0.00,VWS V14.01,2013-09-06 20:55:00,
2013-09-06 16:56:00,75.8,41.3,30.14,ENE,78,0.0,6.0,29,0.00,,CLR,0.00,VWS V14.01,2013-09-06 20:56:00,
2013-09-06 17:00:00,75.8,42.2,30.14,East,79,0.0,6.0,30,0.00,,CLR,0.00,VWS V14.01,2013-09-06 21:00:00,
2013-09-06 17:01:00,75.8,43.0,30.14,East,79,0.0,6.0,31,0.00,,CLR,0.00,VWS V14.01,2013-09-06 21:01:00,
2013-09-06 17:05:00,75.7,41.2,30.14,South,172,0.0,6.0,29,0.00,,CLR,0.00,VWS V14.01,2013-09-06 21:05:00,
2013-09-06 17:06:00,75.6,41.1,30.14,South,172,0.0,6.0,29,0.00,,CLR,0.00,VWS V14.01,2013-09-06 21:06:00,
2013-09-06 17:10:00,75.6,41.1,30.14,South,172,0.0,6.0,29,0.00,,CLR,0.00,VWS V14.01,2013-09-06 21:10:00,
2013-09-06 17:11:00,75.6,40.2,30.14,South,172,0.0,6.0,28,0.00,,CLR,0.00,VWS V14.01,2013-09-06 21:11:00,
2013-09-06 17:15:00,75.4,40.1,30.14,South,172,0.0,6.0,28,0.00,,CLR,0.00,VWS V14.01,2013-09-06 21:15:00,
2013-09-06 17:16:00,75.5,41.0,30.14,South,172,0.0,6.0,29,0.00,,CLR,0.00,VWS V14.01,2013-09-06 21:16:00,
2013-09-06 17:20:00,75.6,40.2,30.14,SSE,163,0.0,6.0,28,0.00,,CLR,0.00,VWS V14.01,2013-09-06 21:20:00,
2013-09-06 17:21:00,75.7,40.3,30.14,SSE,165,1.0,6.0,28,0.00,,CLR,0.00,VWS V14.01,2013-09-06 21:21:00,
2013-09-06 17:25:00,76.0,39.6,30.13,SE,146,1.0,6.0,27,0.00,,CLR,0.00,VWS V14.01,2013-09-06 21:25:00,
2013-09-06 17:26:00,76.1,41.6,30.13,SSE,153,1.0,6.0,29,0.00,,CLR,0.00,VWS V14.01,2013-09-06 21:26:00,
2013-09-06 17:30:00,75.9,41.4,30.13,ESE,117,0.0,6.0,29,0.00,,CLR,0.00,VWS V14.01,2013-09-06 21:30:00,
2013-09-06 17:31:00,75.9,40.5,30.13,ESE,117,0.0,6.0,28,0.00,,CLR,0.00,VWS V14.01,2013-09-06 21:31:00,
2013-09-06 17:35:00,76.2,39.8,30.13,ESE,123,0.0,6.0,27,0.00,,CLR,0.00,VWS V14.01,2013-09-06 21:35:00,
2013-09-06 17:36:00,76.4,41.8,30.13,SE,145,0.0,6.0,29,0.00,,CLR,0.00,VWS V14.01,2013-09-06 21:36:00,
2013-09-06 17:40:00,76.6,41.1,30.14,South,170,0.0,6.0,28,0.00,,CLR,0.00,VWS V14.01,2013-09-06 21:40:00,
2013-09-06 17:41:00,76.6,41.1,30.14,South,170,0.0,6.0,28,0.00,,CLR,0.00,VWS V14.01,2013-09-06 21:41:00,
2013-09-06 17:45:00,76.5,42.8,30.14,ENE,72,2.0,6.0,30,0.00,,CLR,0.00,VWS V14.01,2013-09-06 21:45:00,
2013-09-06 17:46:00,76.4,42.7,30.14,East,101,1.0,6.0,30,0.00,,CLR,0.00,VWS V14.01,2013-09-06 21:46:00,
2013-09-06 17:50:00,76.3,42.6,30.14,SE,139,1.0,6.0,30,0.00,,CLR,0.00,VWS V14.01,2013-09-06 21:50:00,
2013-09-06 17:51:00,76.3,42.6,30.13,SE,146,1.0,6.0,30,0.00,,CLR,0.00,VWS V14.01,2013-09-06 21:51:00,
2013-09-06 17:55:00,76.3,40.8,30.13,ESE,117,2.0,6.0,28,0.00,,CLR,0.00,VWS V14.01,2013-09-06 21:55:00,
2013-09-06 17:56:00,76.4,40.0,30.13,SE,138,2.0,6.0,27,0.00,,CLR,0.00,VWS V14.01,2013-09-06 21:56:00,
2013-09-06 18:00:00,76.7,42.1,30.13,SE,143,0.0,6.0,29,0.00,,CLR,0.00,VWS V14.01,2013-09-06 22:00:00,
2013-09-06 18:01:00,76.9,40.4,30.13,SE,144,1.0,6.0,27,0.00,,CLR,0.00,VWS V14.01,2013-09-06 22:01:00,
2013-09-06 18:05:00,77.3,42.6,30.14,SE,145,1.0,6.0,29,0.00,,CLR,0.00,VWS V14.01,2013-09-06 22:05:00,
2013-09-06 18:06:00,77.5,43.7,30.14,SE,145,0.0,6.0,30,0.00,,CLR,0.00,VWS V14.01,2013-09-06 22:06:00,
2013-09-06 18:10:00,77.4,43.6,30.14,SE,145,0.0,6.0,30,0.00,,CLR,0.00,VWS V14.01,2013-09-06 22:10:00,
2013-09-06 18:11:00,77.3,42.6,30.14,SE,143,0.0,6.0,29,0.00,,CLR,0.00,VWS V14.01,2013-09-06 22:11:00,
2013-09-06 18:15:00,77.1,43.3,30.13,SSE,149,1.0,6.0,30,0.00,,CLR,0.00,VWS V14.01,2013-09-06 22:15:00,
2013-09-06 18:16:00,77.0,43.2,30.13,SSE,149,0.0,6.0,30,0.00,,CLR,0.00,VWS V14.01,2013-09-06 22:16:00,
2013-09-06 18:20:00,76.9,44.8,30.13,SSE,149,0.0,6.0,32,0.00,,CLR,0.00,VWS V14.01,2013-09-06 22:20:00,
2013-09-06 18:21:00,76.8,43.9,30.13,SSE,149,1.0,6.0,31,0.00,,CLR,0.00,VWS V14.01,2013-09-06 22:21:00,
2013-09-06 18:25:00,76.5,44.5,30.13,SE,142,0.0,6.0,32,0.00,,CLR,0.00,VWS V14.01,2013-09-06 22:25:00,
2013-09-06 18:26:00,76.3,44.3,30.13,SE,143,0.0,6.0,32,0.00,,CLR,0.00,VWS V14.01,2013-09-06 22:26:00,
2013-09-06 18:30:00,76.1,44.1,30.13,SE,143,0.0,6.0,32,0.00,,CLR,0.00,VWS V14.01,2013-09-06 22:30:00,
2013-09-06 18:31:00,76.1,44.1,30.13,SE,142,0.0,6.0,32,0.00,,CLR,0.00,VWS V14.01,2013-09-06 22:31:00,
2013-09-06 18:35:00,76.3,45.1,30.13,SE,143,0.0,6.0,33,0.00,,CLR,0.00,VWS V14.01,2013-09-06 22:35:00,
2013-09-06 18:36:00,76.4,45.2,30.13,SE,143,0.0,6.0,33,0.00,,CLR,0.00,VWS V14.01,2013-09-06 22:36:00,
2013-09-06 18:40:00,76.6,45.4,30.13,SE,143,0.0,6.0,33,0.00,,CLR,0.00,VWS V14.01,2013-09-06 22:40:00,
2013-09-06 18:41:00,76.5,44.5,30.13,SE,143,1.0,6.0,32,0.00,,CLR,0.00,VWS V14.01,2013-09-06 22:41:00,
2013-09-06 18:45:00,76.3,44.3,30.13,SE,142,1.0,6.0,32,0.00,,CLR,0.00,VWS V14.01,2013-09-06 22:45:00,
2013-09-06 18:46:00,76.4,43.6,30.13,SE,143,0.0,6.0,31,0.00,,CLR,0.00,VWS V14.01,2013-09-06 22:46:00,
2013-09-06 18:50:00,76.4,46.0,30.12,SE,142,1.0,6.0,34,0.00,,CLR,0.00,VWS V14.01,2013-09-06 22:50:00,
2013-09-06 18:51:00,76.3,45.1,30.13,SE,142,0.0,6.0,33,0.00,,CLR,0.00,VWS V14.01,2013-09-06 22:51:00,
2013-09-06 18:55:00,75.9,44.0,30.12,SE,142,0.0,6.0,32,0.00,,CLR,0.00,VWS V14.01,2013-09-06 22:55:00,
2013-09-06 18:56:00,75.6,44.5,30.13,SE,142,0.0,6.0,33,0.00,,CLR,0.00,VWS V14.01,2013-09-06 22:56:00,
2013-09-06 19:00:00,74.9,44.7,30.12,SE,142,0.0,6.0,34,0.00,,CLR,0.00,VWS V14.01,2013-09-06 23:00:00,
2013-09-06 19:01:00,74.5,44.3,30.12,SE,142,0.0,6.0,34,0.00,,CLR,0.00,VWS V14.01,2013-09-06 23:01:00,
2013-09-06 19:05:00,73.9,46.0,30.13,SE,142,0.0,6.0,37,0.00,,CLR,0.00,VWS V14.01,2013-09-06 23:05:00,
2013-09-06 19:06:00,73.6,45.8,30.13,SE,142,0.0,6.0,37,0.00,,CLR,0.00,VWS V14.01,2013-09-06 23:06:00,
2013-09-06 19:10:00,73.0,47.3,30.13,SE,142,0.0,6.0,40,0.00,,CLR,0.00,VWS V14.01,2013-09-06 23:10:00,
2013-09-06 19:11:00,72.8,47.1,30.13,SE,142,0.0,6.0,40,0.00,,CLR,0.00,VWS V14.01,2013-09-06 23:11:00,
2013-09-06 19:15:00,72.3,46.7,30.12,SE,142,0.0,6.0,40,0.00,,CLR,0.00,VWS V14.01,2013-09-06 23:15:00,
2013-09-06 19:16:00,72.0,47.0,30.12,SE,142,0.0,6.0,41,0.00,,CLR,0.00,VWS V14.01,2013-09-06 23:16:00,
2013-09-06 19:20:00,71.2,45.7,30.13,SE,142,0.0,6.0,40,0.00,,CLR,0.00,VWS V14.01,2013-09-06 23:20:00,
2013-09-06 19:21:00,70.9,45.4,30.13,SE,142,0.0,6.0,40,0.00,,CLR,0.00,VWS V14.01,2013-09-06 23:21:00,
2013-09-06 19:25:00,70.3,45.5,30.13,SE,142,0.0,6.0,41,0.00,,CLR,0.00,VWS V14.01,2013-09-06 23:25:00,
2013-09-06 19:26:00,70.0,45.9,30.12,SE,142,0.0,6.0,42,0.00,,CLR,0.00,VWS V14.01,2013-09-06 23:26:00,
2013-09-06 19:30:00,69.4,46.0,30.12,SE,142,0.0,6.0,43,0.00,,CLR,0.00,VWS V14.01,2013-09-06 23:30:00,
2013-09-06 19:31:00,69.2,45.8,30.12,SE,142,0.0,6.0,43,0.00,,CLR,0.00,VWS V14.01,2013-09-06 23:31:00,
2013-09-06 19:35:00,68.7,46.5,30.12,SE,142,0.0,6.0,45,0.00,,CLR,0.00,VWS V14.01,2013-09-06 23:35:00,
2013-09-06 19:36:00,68.5,46.9,30.12,SE,143,0.0,6.0,46,0.00,,CLR,0.00,VWS V14.01,2013-09-06 23:36:00,
2013-09-06 19:40:00,68.1,47.1,30.12,SE,143,0.0,6.0,47,0.00,,CLR,0.00,VWS V14.01,2013-09-06 23:40:00,
2013-09-06 19:41:00,68.0,47.6,30.12,SE,143,0.0,6.0,48,0.00,,CLR,0.00,VWS V14.01,2013-09-06 23:41:00,
2013-09-06 19:45:00,67.6,48.3,30.12,SE,142,0.0,6.0,50,0.00,,CLR,0.00,VWS V14.01,2013-09-06 23:45:00,
2013-09-06 19:46:00,67.4,48.7,30.12,SE,142,0.0,6.0,51,0.00,,CLR,0.00,VWS V14.01,2013-09-06 23:46:00,
2013-09-06 19:50:00,67.0,48.3,30.12,SE,143,0.0,6.0,51,0.00,,CLR,0.00,VWS V14.01,2013-09-06 23:50:00,
2013-09-06 19:51:00,66.7,48.0,30.12,SE,142,0.0,6.0,51,0.00,,CLR,0.00,VWS V14.01,2013-09-06 23:51:00,
2013-09-06 19:55:00,66.3,48.7,30.12,SE,142,0.0,6.0,53,0.00,,CLR,0.00,VWS V14.01,2013-09-06 23:55:00,
2013-09-06 19:56:00,66.1,48.5,30.12,SE,143,0.0,6.0,53,0.00,,CLR,0.00,VWS V14.01,2013-09-06 23:56:00,
2013-09-06 20:00:00,65.7,49.1,30.12,SE,143,0.0,6.0,55,0.00,,CLR,0.00,VWS V14.01,2013-09-07 00:00:00,
2013-09-06 20:01:00,65.5,49.9,30.12,SE,142,0.0,6.0,57,0.00,,CLR,0.00,VWS V14.01,2013-09-07 00:01:00,
2013-09-06 20:05:00,65.2,50.5,30.11,SE,142,0.0,6.0,59,0.00,,CLR,0.00,VWS V14.01,2013-09-07 00:05:00,
2013-09-06 20:06:00,65.1,49.5,30.11,SE,142,0.0,6.0,57,0.00,,CLR,0.00,VWS V14.01,2013-09-07 00:06:00,
2013-09-06 20:10:00,64.8,49.2,30.11,SE,143,0.0,6.0,57,0.00,,CLR,0.00,VWS V14.01,2013-09-07 00:10:00,
2013-09-06 20:11:00,64.6,49.5,30.11,SE,142,0.0,6.0,58,0.00,,CLR,0.00,VWS V14.01,2013-09-07 00:11:00,
2013-09-06 20:15:00,64.4,48.8,30.11,SE,143,0.0,6.0,57,0.00,,CLR,0.00,VWS V14.01,2013-09-07 00:15:00,
2013-09-06 20:16:00,64.3,48.8,30.11,SE,143,0.0,6.0,57,0.00,,CLR,0.00,VWS V14.01,2013-09-07 00:16:00,
2013-09-06 20:20:00,63.9,48.8,30.12,SE,143,0.0,6.0,58,0.00,,CLR,0.00,VWS V14.01,2013-09-07 00:20:00,
2013-09-06 20:21:00,63.8,48.8,30.12,SE,142,0.0,6.0,58,0.00,,CLR,0.00,VWS V14.01,2013-09-07 00:21:00,
2013-09-06 20:25:00,63.4,49.3,30.11,SE,143,0.0,6.0,60,0.00,,CLR,0.00,VWS V14.01,2013-09-07 00:25:00,
2013-09-06 20:26:00,63.2,48.7,30.12,SE,143,0.0,6.0,59,0.00,,CLR,0.00,VWS V14.01,2013-09-07 00:26:00,
2013-09-06 20:30:00,62.7,48.6,30.12,SE,143,0.0,6.0,60,0.00,,CLR,0.00,VWS V14.01,2013-09-07 00:30:00,
2013-09-06 20:31:00,62.6,49.0,30.12,SE,142,0.0,6.0,61,0.00,,CLR,0.00,VWS V14.01,2013-09-07 00:31:00,
2013-09-06 20:35:00,62.3,49.1,30.12,SE,143,0.0,6.0,62,0.00,,CLR,0.00,VWS V14.01,2013-09-07 00:35:00,
2013-09-06 20:36:00,62.1,48.9,30.12,SE,143,0.0,6.0,62,0.00,,CLR,0.00,VWS V14.01,2013-09-07 00:36:00,
2013-09-06 20:40:00,61.7,49.4,30.12,SE,143,0.0,6.0,64,0.00,,CLR,0.00,VWS V14.01,2013-09-07 00:40:00,
2013-09-06 20:41:00,61.6,50.1,30.12,SE,142,0.0,6.0,66,0.00,,CLR,0.00,VWS V14.01,2013-09-07 00:41:00,
2013-09-06 20:45:00,61.2,49.8,30.12,SE,143,0.0,6.0,66,0.00,,CLR,0.00,VWS V14.01,2013-09-07 00:45:00,
2013-09-06 20:46:00,61.1,50.1,30.12,SE,143,0.0,6.0,67,0.00,,CLR,0.00,VWS V14.01,2013-09-07 00:46:00,
2013-09-06 20:50:00,60.8,50.2,30.13,SE,143,0.0,6.0,68,0.00,,CLR,0.00,VWS V14.01,2013-09-07 00:50:00,
2013-09-06 20:51:00,60.7,50.5,30.13,SE,142,0.0,6.0,69,0.00,,CLR,0.00,VWS V14.01,2013-09-07 00:51:00,
2013-09-06 20:55:00,60.4,50.2,30.13,SE,142,0.0,6.0,69,0.00,,CLR,0.00,VWS V14.01,2013-09-07 00:55:00,
2013-09-06 20:56:00,60.4,50.2,30.13,SE,142,0.0,6.0,69,0.00,,CLR,0.00,VWS V14.01,2013-09-07 00:56:00,
2013-09-06 21:00:00,60.2,50.0,30.13,SE,142,0.0,6.0,69,0.00,,CLR,0.00,VWS V14.01,2013-09-07 01:00:00,
2013-09-06 21:01:00,60.1,50.3,30.13,SE,143,0.0,6.0,70,0.00,,CLR,0.00,VWS V14.01,2013-09-07 01:01:00,
2013-09-06 21:05:00,59.9,50.1,30.13,SE,142,0.0,6.0,70,0.00,,CLR,0.00,VWS V14.01,2013-09-07 01:05:00,
2013-09-06 21:06:00,59.8,50.4,30.13,SE,143,0.0,6.0,71,0.00,,CLR,0.00,VWS V14.01,2013-09-07 01:06:00,
2013-09-06 21:10:00,59.5,50.1,30.13,SE,143,0.0,6.0,71,0.00,,CLR,0.00,VWS V14.01,2013-09-07 01:10:00,
2013-09-06 21:11:00,59.4,50.0,30.13,SE,143,0.0,6.0,71,0.00,,CLR,0.00,VWS V14.01,2013-09-07 01:11:00,
2013-09-06 21:15:00,59.2,50.2,30.13,SE,142,0.0,6.0,72,0.00,,CLR,0.00,VWS V14.01,2013-09-07 01:15:00,
2013-09-06 21:16:00,59.2,50.2,30.13,SE,142,0.0,6.0,72,0.00,,CLR,0.00,VWS V14.01,2013-09-07 01:16:00,
2013-09-06 21:20:00,59.3,50.7,30.13,SE,142,0.0,6.0,73,0.00,,CLR,0.00,VWS V14.01,2013-09-07 01:20:00,
2013-09-06 21:21:00,59.3,50.7,30.13,SE,143,0.0,6.0,73,0.00,,CLR,0.00,VWS V14.01,2013-09-07 01:21:00,
2013-09-06 21:25:00,59.3,50.3,30.13,SE,142,0.0,6.0,72,0.00,,CLR,0.00,VWS V14.01,2013-09-07 01:25:00,
2013-09-06 21:26:00,59.3,50.7,30.13,SE,143,0.0,6.0,73,0.00,,CLR,0.00,VWS V14.01,2013-09-07 01:26:00,
2013-09-06 21:30:00,59.4,50.8,30.13,SE,143,0.0,6.0,73,0.00,,CLR,0.00,VWS V14.01,2013-09-07 01:30:00,
2013-09-06 21:31:00,59.4,50.8,30.13,SE,143,0.0,6.0,73,0.00,,CLR,0.00,VWS V14.01,2013-09-07 01:31:00,
2013-09-06 21:35:00,59.3,50.7,30.13,SE,142,0.0,6.0,73,0.00,,CLR,0.00,VWS V14.01,2013-09-07 01:35:00,
2013-09-06 21:36:00,59.2,50.6,30.13,SE,143,0.0,6.0,73,0.00,,CLR,0.00,VWS V14.01,2013-09-07 01:36:00,
2013-09-06 21:40:00,58.9,50.3,30.13,SE,143,0.0,6.0,73,0.00,,CLR,0.00,VWS V14.01,2013-09-07 01:40:00,
2013-09-06 21:41:00,58.8,50.5,30.13,SE,142,0.0,6.0,74,0.00,,CLR,0.00,VWS V14.01,2013-09-07 01:41:00,
2013-09-06 21:45:00,58.5,50.2,30.13,SE,142,0.0,6.0,74,0.00,,CLR,0.00,VWS V14.01,2013-09-07 01:45:00,
2013-09-06 21:46:00,58.4,50.5,30.13,SE,142,0.0,6.0,75,0.00,,CLR,0.00,VWS V14.01,2013-09-07 01:46:00,
2013-09-06 21:50:00,58.3,50.4,30.13,SE,143,0.0,6.0,75,0.00,,CLR,0.00,VWS V14.01,2013-09-07 01:50:00,
2013-09-06 21:51:00,58.2,50.7,30.13,SE,143,0.0,6.0,76,0.00,,CLR,0.00,VWS V14.01,2013-09-07 01:51:00,
2013-09-06 21:55:00,58.2,51.0,30.13,SE,143,0.0,6.0,77,0.00,,CLR,0.00,VWS V14.01,2013-09-07 01:55:00,
2013-09-06 21:56:00,58.2,51.0,30.13,SE,143,0.0,6.0,77,0.00,,CLR,0.00,VWS V14.01,2013-09-07 01:56:00,
2013-09-06 22:00:00,58.1,51.3,30.12,SE,142,0.0,6.0,78,0.00,,CLR,0.00,VWS V14.01,2013-09-07 02:00:00,
2013-09-06 22:01:00,58.0,51.2,30.12,SE,143,0.0,6.0,78,0.00,,CLR,0.00,VWS V14.01,2013-09-07 02:01:00,
2013-09-06 22:05:00,57.9,51.1,30.12,SE,142,0.0,6.0,78,0.00,,CLR,0.00,VWS V14.01,2013-09-07 02:05:00,
2013-09-06 22:06:00,57.8,51.0,30.12,SE,143,0.0,6.0,78,0.00,,CLR,0.00,VWS V14.01,2013-09-07 02:06:00,
2013-09-06 22:10:00,57.6,50.8,30.12,SE,143,0.0,6.0,78,0.00,,CLR,0.00,VWS V14.01,2013-09-07 02:10:00,
2013-09-06 22:11:00,57.5,50.7,30.12,SE,143,0.0,6.0,78,0.00,,CLR,0.00,VWS V14.01,2013-09-07 02:11:00,
2013-09-06 22:15:00,57.3,50.5,30.12,SE,142,0.0,6.0,78,0.00,,CLR,0.00,VWS V14.01,2013-09-07 02:15:00,
2013-09-06 22:16:00,57.2,50.4,30.12,SE,142,0.0,6.0,78,0.00,,CLR,0.00,VWS V14.01,2013-09-07 02:16:00,
2013-09-06 22:20:00,57.1,50.7,30.12,SE,143,0.0,6.0,79,0.00,,CLR,0.00,VWS V14.01,2013-09-07 02:20:00,
2013-09-06 22:21:00,57.1,50.7,30.12,SE,142,0.0,6.0,79,0.00,,CLR,0.00,VWS V14.01,2013-09-07 02:21:00,
2013-09-06 22:25:00,57.0,50.9,30.12,SE,143,0.0,6.0,80,0.00,,CLR,0.00,VWS V14.01,2013-09-07 02:25:00,
2013-09-06 22:26:00,56.9,50.8,30.12,SE,143,0.0,6.0,80,0.00,,CLR,0.00,VWS V14.01,2013-09-07 02:26:00,
2013-09-06 22:30:00,56.8,50.7,30.12,SE,143,0.0,6.0,80,0.00,,CLR,0.00,VWS V14.01,2013-09-07 02:30:00,
2013-09-06 22:31:00,56.7,50.6,30.12,SE,142,0.0,6.0,80,0.00,,CLR,0.00,VWS V14.01,2013-09-07 02:31:00,
2013-09-06 22:35:00,56.5,50.4,30.12,SE,142,0.0,6.0,80,0.00,,CLR,0.00,VWS V14.01,2013-09-07 02:35:00,
2013-09-06 22:36:00,56.5,50.4,30.12,SE,143,0.0,6.0,80,0.00,,CLR,0.00,VWS V14.01,2013-09-07 02:36:00,
2013-09-06 22:40:00,56.4,50.7,30.12,SE,143,0.0,6.0,81,0.00,,CLR,0.00,VWS V14.01,2013-09-07 02:40:00,
2013-09-06 22:41:00,56.4,50.7,30.12,SE,142,0.0,6.0,81,0.00,,CLR,0.00,VWS V14.01,2013-09-07 02:41:00,
2013-09-06 22:45:00,56.3,50.5,30.12,SE,143,0.0,6.0,81,0.00,,CLR,0.00,VWS V14.01,2013-09-07 02:45:00,
2013-09-06 22:46:00,56.3,50.5,30.12,SE,143,0.0,6.0,81,0.00,,CLR,0.00,VWS V14.01,2013-09-07 02:46:00,
2013-09-06 22:50:00,56.1,50.7,30.12,SE,143,0.0,6.0,82,0.00,,CLR,0.00,VWS V14.01,2013-09-07 02:50:00,
2013-09-06 22:51:00,56.1,50.7,30.12,SE,143,0.0,6.0,82,0.00,,CLR,0.00,VWS V14.01,2013-09-07 02:51:00,
2013-09-06 22:55:00,55.9,50.5,30.12,SE,143,0.0,6.0,82,0.00,,CLR,0.00,VWS V14.01,2013-09-07 02:55:00,
2013-09-06 22:56:00,55.9,50.5,30.12,SE,142,0.0,6.0,82,0.00,,CLR,0.00,VWS V14.01,2013-09-07 02:56:00,
2013-09-06 23:00:00,55.8,50.4,30.12,SE,142,0.0,6.0,82,0.00,,CLR,0.00,VWS V14.01,2013-09-07 03:00:00,
2013-09-06 23:01:00,55.8,50.7,30.12,SE,143,0.0,6.0,83,0.00,,CLR,0.00,VWS V14.01,2013-09-07 03:01:00,
2013-09-06 23:05:00,55.8,51.0,30.11,SE,143,0.0,6.0,84,0.00,,CLR,0.00,VWS V14.01,2013-09-07 03:05:00,
2013-09-06 23:06:00,55.8,51.0,30.11,SE,143,0.0,6.0,84,0.00,,CLR,0.00,VWS V14.01,2013-09-07 03:06:00,
2013-09-06 23:10:00,55.9,51.1,30.12,SE,143,0.0,6.0,84,0.00,,CLR,0.00,VWS V14.01,2013-09-07 03:10:00,
2013-09-06 23:11:00,55.9,51.1,30.12,SE,143,0.0,6.0,84,0.00,,CLR,0.00,VWS V14.01,2013-09-07 03:11:00,
2013-09-06 23:15:00,55.9,51.1,30.11,SE,142,0.0,6.0,84,0.00,,CLR,0.00,VWS V14.01,2013-09-07 03:15:00,
2013-09-06 23:16:00,55.9,51.1,30.11,SE,142,0.0,6.0,84,0.00,,CLR,0.00,VWS V14.01,2013-09-07 03:16:00,
2013-09-06 23:20:00,55.8,51.0,30.11,SE,143,0.0,6.0,84,0.00,,CLR,0.00,VWS V14.01,2013-09-07 03:20:00,
2013-09-06 23:21:00,55.7,51.0,30.11,SE,143,0.0,6.0,84,0.00,,CLR,0.00,VWS V14.01,2013-09-07 03:21:00,
2013-09-06 23:25:00,55.6,50.8,30.11,SE,142,0.0,6.0,84,0.00,,CLR,0.00,VWS V14.01,2013-09-07 03:25:00,
2013-09-06 23:26:00,55.6,50.8,30.11,SE,142,0.0,6.0,84,0.00,,CLR,0.00,VWS V14.01,2013-09-07 03:26:00,
2013-09-06 23:30:00,55.8,51.4,30.11,SE,142,0.0,6.0,85,0.00,,CLR,0.00,VWS V14.01,2013-09-07 03:30:00,
2013-09-06 23:31:00,55.8,51.4,30.11,SE,142,0.0,6.0,85,0.00,,CLR,0.00,VWS V14.01,2013-09-07 03:31:00,
2013-09-06 23:35:00,56.0,51.9,30.11,SE,143,0.0,6.0,86,0.00,,CLR,0.00,VWS V14.01,2013-09-07 03:35:00,
2013-09-06 23:36:00,56.0,51.9,30.11,SE,143,0.0,6.0,86,0.00,,CLR,0.00,VWS V14.01,2013-09-07 03:36:00,
2013-09-06 23:40:00,55.9,51.5,30.11,SE,142,0.0,6.0,85,0.00,,CLR,0.00,VWS V14.01,2013-09-07 03:40:00,
2013-09-06 23:41:00,55.9,51.5,30.11,SE,142,0.0,6.0,85,0.00,,CLR,0.00,VWS V14.01,2013-09-07 03:41:00,
2013-09-06 23:45:00,55.8,51.4,30.11,SE,143,0.0,6.0,85,0.00,,CLR,0.00,VWS V14.01,2013-09-07 03:45:00,
2013-09-06 23:46:00,55.7,51.3,30.11,SE,143,0.0,6.0,85,0.00,,CLR,0.00,VWS V14.01,2013-09-07 03:46:00,
2013-09-06 23:50:00,55.6,51.2,30.11,SE,143,0.0,6.0,85,0.00,,CLR,0.00,VWS V14.01,2013-09-07 03:50:00,
2013-09-06 23:51:00,55.5,51.1,30.11,SE,142,0.0,6.0,85,0.00,,CLR,0.00,VWS V14.01,2013-09-07 03:51:00,
2013-09-06 23:55:00,55.4,51.0,30.10,SE,143,0.0,6.0,85,0.00,,CLR,0.00,VWS V14.01,2013-09-07 03:55:00,
2013-09-06 23:56:00,55.3,50.9,30.10,SE,143,0.0,6.0,85,0.00,,CLR,0.00,VWS V14.01,2013-09-07 03:56:00,